Time;durP1;ratioP1;P1;durP2;ratioP2;P2;SDS_P1;SDS_P2;PMS_P1;PMS_P2;Temp;Humidity;BMP_temperature;BMP_pressure;BME280_temperature;BME280_humidity;BME280_pressure;Samples;Min_cycle;Max_cycle;Signal;HPM_P1;HPM_P2
2023/03/28 00:01:45;;;;;;;;;5.00;4.00;;;;;8.38;45.56;102415.78;5058990;28;51883;-46
2023/03/28 00:04:11;;;;;;;;;8.00;5.75;;;;;8.35;45.63;102418.59;5059204;28;45307;-45
2023/03/28 00:06:37;;;;;;;;;9.00;7.75;;;;;8.24;46.20;102390.06;5058885;28;45403;-47
2023/03/28 00:09:04;;;;;;;;;8.25;5.75;;;;;8.31;46.38;102402.00;5059492;28;45331;-47
2023/03/28 00:11:30;;;;;;;;;9.75;5.75;;;;;8.31;46.20;102409.13;5058812;28;46107;-40
2023/03/28 00:14:01;;;;;;;;;6.00;6.00;;;;;8.30;45.84;102420.63;5058959;28;45385;-47
2023/03/28 00:16:33;;;;;;;;;6.50;6.00;;;;;8.27;46.92;102418.19;5059088;28;45378;-47
2023/03/28 00:19:07;;;;;;;;;12.25;8.75;;;;;8.27;46.84;102426.16;5059490;28;45245;-47
2023/03/28 00:21:36;;;;;;;;;2.75;2.75;;;;;8.25;45.75;102416.47;5058721;28;47183;-43
2023/03/28 00:24:04;;;;;;;;;8.00;5.00;;;;;8.24;46.31;102411.25;5058790;28;45474;-45
2023/03/28 00:26:32;;;;;;;;;13.50;9.50;;;;;8.19;47.44;102411.53;5058573;28;45558;-46
2023/03/28 00:29:00;;;;;;;;;8.00;8.00;;;;;8.19;47.43;102414.19;5059212;28;45228;-47
2023/03/28 00:31:25;;;;;;;;;8.00;6.00;;;;;8.14;47.58;102418.06;5058624;28;46196;-45
2023/03/28 00:33:52;;;;;;;;;7.00;5.75;;;;;8.17;46.91;102412.56;5058651;28;45730;-46
2023/03/28 00:36:21;;;;;;;;;9.00;7.00;;;;;8.15;46.97;102404.72;5040367;28;45455;-44
2023/03/28 00:38:52;;;;;;;;;5.75;1.25;;;;;8.20;47.38;102413.22;5058210;28;45411;-48
2023/03/28 00:41:20;;;;;;;;;9.75;7.25;;;;;8.21;46.94;102404.34;5058260;28;45519;-46
2023/03/28 00:43:48;;;;;;;;;12.75;10.50;;;;;8.18;48.07;102403.69;5058191;28;45348;-46
2023/03/28 00:46:22;;;;;;;;;11.75;7.00;;;;;8.15;47.64;102404.72;5058488;28;45439;-46
2023/03/28 00:48:52;;;;;;;;;4.50;4.50;;;;;8.08;48.14;102407.81;5058901;28;45300;-44
2023/03/28 00:51:23;;;;;;;;;12.00;8.50;;;;;7.99;48.32;102406.53;5058414;28;46043;-46
2023/03/28 00:53:51;;;;;;;;;5.75;5.00;;;;;7.95;47.22;102405.88;5058305;28;45395;-45
2023/03/28 00:56:22;;;;;;;;;9.25;6.00;;;;;7.93;47.71;102406.91;5058274;28;45391;-44
2023/03/28 00:58:49;;;;;;;;;10.50;10.00;;;;;7.93;48.16;102409.56;5058529;28;45359;-45
2023/03/28 01:01:18;;;;;;;;;9.50;7.25;;;;;7.89;48.95;102405.38;5058034;28;46183;-47
2023/03/28 01:03:48;;;;;;;;;11.25;6.50;;;;;7.87;48.99;102399.31;5058308;28;45466;-47
2023/03/28 01:06:15;;;;;;;;;11.75;9.25;;;;;7.87;48.99;102402.81;5058187;28;45277;-44
2023/03/28 01:08:43;;;;;;;;;10.50;7.50;;;;;7.80;48.46;102411.22;5058417;28;45595;-42
2023/03/28 01:11:10;;;;;;;;;8.75;5.00;;;;;7.75;48.60;102403.50;5057685;28;46262;-45
2023/03/28 01:13:40;;;;;;;;;11.00;9.75;;;;;7.78;48.69;102405.13;5057665;28;45281;-46
2023/03/28 01:16:07;;;;;;;;;9.75;7.50;;;;;7.84;47.93;102403.00;5058108;28;45388;-47
2023/03/28 01:18:34;;;;;;;;;10.25;7.50;;;;;7.87;48.35;102397.50;5058199;28;45303;-45
2023/03/28 01:21:15;;;;;;;;;9.25;5.00;;;;;7.72;47.13;102378.06;5058036;28;45459;-47
2023/03/28 01:23:52;;;;;;;;;10.00;8.00;;;;;7.86;47.57;102405.56;5057880;28;45495;-45
2023/03/28 01:26:31;;;;;;;;;8.75;8.00;;;;;7.85;47.58;102403.84;5057825;28;45597;-47
2023/03/28 01:29:05;;;;;;;;;6.50;6.50;;;;;7.84;47.40;102400.34;5058284;28;45196;-45
2023/03/28 01:31:42;;;;;;;;;5.00;4.75;;;;;7.86;47.03;102397.59;5057649;28;46106;-47
2023/03/28 01:34:26;;;;;;;;;10.50;8.00;;;;;7.90;47.56;102388.53;5057708;28;45298;-44
2023/03/28 01:37:09;;;;;;;;;4.25;2.00;;;;;7.91;47.19;102385.78;5057933;28;45367;-47
2023/03/28 01:39:44;;;;;;;;;6.25;5.50;;;;;7.93;46.90;102381.25;5057864;28;45332;-46
2023/03/28 01:42:24;;;;;;;;;8.00;5.00;;;;;7.91;46.87;102383.13;5039372;28;46369;-43
2023/03/28 01:44:52;;;;;;;;;6.00;6.00;;;;;7.56;47.37;102316.31;5057635;28;45372;-46
2023/03/28 01:47:23;;;;;;;;;8.00;5.25;;;;;7.95;47.16;102376.72;5057720;28;45371;-43
2023/03/28 01:50:12;;;;;;;;;9.50;6.00;;;;;7.98;47.67;102365.09;5057446;28;45468;-45
2023/03/28 01:52:46;;;;;;;;;5.50;5.00;;;;;8.03;46.74;102365.66;5057156;28;47025;-46
2023/03/28 01:55:24;;;;;;;;;4.25;4.25;;;;;8.02;46.53;102358.66;5057466;28;45516;-44
2023/03/28 01:58:22;;;;;;;;;5.00;5.00;;;;;8.00;47.54;102358.75;5057650;28;45365;-45
2023/03/28 02:00:55;;;;;;;;;4.00;4.00;;;;;7.82;46.76;102332.47;5057686;28;45515;-48
2023/03/28 02:03:26;;;;;;;;;7.25;3.00;;;;;7.86;47.74;102349.91;5057155;28;47332;-46
2023/03/28 02:05:55;;;;;;;;;4.75;4.75;;;;;7.81;47.74;102341.38;5057091;28;45411;-46
2023/03/28 02:08:24;;;;;;;;;4.25;4.25;;;;;7.74;47.41;102331.13;5057116;28;45434;-44
2023/03/28 02:10:53;;;;;;;;;4.25;4.25;;;;;7.71;47.86;102331.34;5057102;28;45532;-45
2023/03/28 02:13:32;;;;;;;;;5.00;5.00;;;;;7.56;47.57;102311.03;5057079;28;45398;-46
2023/03/28 02:15:59;;;;;;;;;6.00;5.75;;;;;7.49;48.19;102309.66;5057059;28;45413;-46
2023/03/28 02:18:35;;;;;;;;;8.00;5.25;;;;;7.48;48.12;102326.50;5057061;28;45365;-47
2023/03/28 02:21:06;;;;;;;;;5.75;4.25;;;;;7.42;48.01;102332.16;5057293;28;45286;-44
2023/03/28 02:23:38;;;;;;;;;10.25;6.00;;;;;7.39;48.29;102330.53;5038715;28;47987;-46
2023/03/28 02:26:05;;;;;;;;;5.50;5.50;;;;;7.41;47.48;102331.28;5056823;28;45333;-49
2023/03/28 02:28:32;;;;;;;;;6.00;4.25;;;;;7.37;48.47;102323.59;5057020;28;45248;-46
2023/03/28 02:31:00;;;;;;;;;7.50;4.75;;;;;7.42;48.21;102324.22;5057264;28;45806;-45
2023/03/28 02:33:52;;;;;;;;;5.50;5.50;;;;;7.48;47.87;102329.16;5056795;28;46961;-44
2023/03/28 02:36:21;;;;;;;;;8.00;5.00;;;;;7.49;48.61;102323.75;5053963;28;45206;-45
2023/03/28 02:38:49;;;;;;;;;10.25;4.00;;;;;7.46;47.86;102316.00;5056736;28;45374;-47
2023/03/28 02:41:39;;;;;;;;;8.50;5.75;;;;;7.43;47.99;102310.03;5056658;28;45259;-43
2023/03/28 02:44:34;;;;;;;;;7.00;4.00;;;;;7.36;48.12;102314.81;5056529;28;47281;-42
2023/03/28 02:47:05;;;;;;;;;5.75;5.00;;;;;7.35;48.43;102302.50;5055905;28;45450;-45
2023/03/28 02:49:42;;;;;;;;;6.00;4.25;;;;;7.33;48.22;102304.41;5056736;28;45323;-48
2023/03/28 02:52:13;;;;;;;;;5.75;3.50;;;;;7.36;47.48;102308.66;5056784;28;45432;-48
2023/03/28 02:54:50;;;;;;;;;5.00;3.50;;;;;7.32;48.35;102301.84;5056357;28;47109;-49
2023/03/28 02:57:29;;;;;;;;;5.00;5.00;;;;;7.34;47.88;102299.97;5056600;28;45486;-47
2023/03/28 03:00:04;;;;;;;;;5.00;3.00;;;;;7.20;47.72;102277.75;5056663;28;45276;-47
2023/03/28 03:02:32;;;;;;;;;1.50;1.50;;;;;7.29;47.64;102297.59;5060351;28;45314;-43
2023/03/28 03:05:00;;;;;;;;;4.00;4.00;;;;;7.28;47.76;102298.50;5059406;28;46617;-44
2023/03/28 03:07:26;;;;;;;;;4.75;4.75;;;;;7.31;47.30;102289.53;5059968;28;45423;-42
2023/03/28 03:09:52;;;;;;;;;5.00;4.75;;;;;7.23;48.18;102271.44;5060176;28;45423;-45
2023/03/28 03:12:22;;;;;;;;;4.00;4.00;;;;;7.38;48.03;102286.47;5060092;28;45563;-45
2023/03/28 03:14:49;;;;;;;;;4.25;4.25;;;;;7.42;47.79;102279.19;5059777;28;45406;-45
2023/03/28 03:17:16;;;;;;;;;4.00;1.75;;;;;7.42;47.41;102277.41;5060027;28;45391;-50
2023/03/28 03:19:42;;;;;;;;;4.75;1.00;;;;;7.38;47.18;102277.66;5060064;28;45334;-44
2023/03/28 03:22:07;;;;;;;;;4.00;4.00;;;;;7.34;48.29;102268.19;5060115;28;45418;-44
2023/03/28 03:24:33;;;;;;;;;4.75;4.75;;;;;7.33;47.38;102267.34;5059226;28;46311;-44
2023/03/28 03:26:58;;;;;;;;;4.75;4.75;;;;;7.27;48.30;102278.28;5059724;28;45305;-47
2023/03/28 03:29:24;;;;;;;;;4.75;4.50;;;;;7.25;48.50;102267.78;5060069;28;45233;-45
2023/03/28 03:31:49;;;;;;;;;3.25;3.00;;;;;7.24;49.12;102254.63;5059896;28;45468;-46
2023/03/28 03:34:15;;;;;;;;;5.50;4.75;;;;;7.27;48.17;102250.97;5059624;28;45928;-45
2023/03/28 03:36:41;;;;;;;;;4.75;4.50;;;;;7.28;48.85;102240.25;5059852;28;45435;-45
2023/03/28 03:39:07;;;;;;;;;8.50;5.50;;;;;7.29;48.29;102238.47;5059788;28;45542;-47
2023/03/28 03:41:32;;;;;;;;;5.50;4.75;;;;;7.33;47.91;102240.88;5059477;28;45374;-47
2023/03/28 03:43:57;;;;;;;;;3.50;3.50;;;;;7.31;48.95;102255.13;5059421;28;46407;-46
2023/03/28 03:46:23;;;;;;;;;4.75;4.00;;;;;7.34;48.32;102239.06;5059355;28;45391;-43
2023/03/28 03:48:48;;;;;;;;;4.00;4.00;;;;;7.33;48.74;102245.28;5059060;28;45392;-47
2023/03/28 03:51:14;;;;;;;;;5.25;4.00;;;;;7.36;48.53;102240.69;5059088;28;45552;-49
2023/03/28 03:53:39;;;;;;;;;6.50;4.75;;;;;7.35;48.97;102243.44;5059372;28;46083;-46
2023/03/28 03:56:06;;;;;;;;;7.50;4.75;;;;;7.28;49.15;102231.47;5059126;28;45315;-48
2023/03/28 03:58:31;;;;;;;;;5.75;4.25;;;;;7.34;48.80;102241.72;5058859;28;45477;-46
2023/03/28 04:00:57;;;;;;;;;5.75;4.25;;;;;7.36;48.43;102245.97;5059506;28;45379;-46
2023/03/28 04:03:24;;;;;;;;;5.00;4.00;;;;;7.33;48.82;102240.88;5059041;28;46131;-44
2023/03/28 04:05:51;;;;;;;;;1.25;1.25;;;;;7.37;48.33;102236.22;5059383;28;45436;-46
2023/03/28 04:08:17;;;;;;;;;11.00;4.25;;;;;7.36;48.69;102232.72;5058939;28;45368;-48
2023/03/28 04:10:42;;;;;;;;;6.00;5.00;;;;;7.34;48.50;102228.50;5059214;28;45344;-45
2023/03/28 04:13:07;;;;;;;;;5.50;5.50;;;;;7.28;49.27;102229.69;5058695;28;51588;-47
2023/03/28 04:15:33;;;;;;;;;6.00;4.50;;;;;7.25;48.92;102236.03;5059055;28;45336;-46
2023/03/28 04:17:58;;;;;;;;;4.75;4.00;;;;;7.24;49.37;102236.09;5059186;28;45418;-43
2023/03/28 04:20:24;;;;;;;;;6.50;6.00;;;;;7.25;48.70;102229.88;5059164;28;45393;-44
2023/03/28 04:22:50;;;;;;;;;4.00;4.00;;;;;7.23;49.33;102229.94;5058883;28;46106;-45
2023/03/28 04:25:16;;;;;;;;;2.00;2.00;;;;;7.19;49.31;102235.50;5058770;28;45476;-47
2023/03/28 04:27:47;;;;;;;;;5.75;5.75;;;;;7.16;49.64;102236.56;5058739;28;45285;-46
2023/03/28 04:30:16;;;;;;;;;5.25;5.00;;;;;7.17;49.03;102224.19;5058997;28;45414;-47
2023/03/28 04:32:48;;;;;;;;;7.50;4.00;;;;;7.10;49.61;102231.59;5058522;28;46173;-45
2023/03/28 04:35:15;;;;;;;;;5.25;4.00;;;;;7.05;49.42;102238.94;5058606;28;45413;-45
2023/03/28 04:37:41;;;;;;;;;5.00;5.00;;;;;7.06;49.67;102232.72;5058855;28;45375;-47
2023/03/28 04:40:11;;;;;;;;;5.00;4.75;;;;;6.95;49.76;102221.88;5058701;28;45481;-47
2023/03/28 04:42:37;;;;;;;;;5.00;5.00;;;;;6.94;50.38;102234.25;5058113;28;46196;-44
2023/03/28 04:45:03;;;;;;;;;7.25;5.00;;;;;6.92;50.40;102235.31;5058555;28;45523;-50
2023/03/28 04:47:29;;;;;;;;;6.25;4.00;;;;;6.88;50.26;102236.41;5058382;28;45525;-46
2023/03/28 04:49:54;;;;;;;;;7.75;4.75;;;;;6.89;49.80;102227.53;5058485;28;45521;-47
2023/03/28 04:52:20;;;;;;;;;4.25;4.00;;;;;6.88;50.20;102244.34;5058392;28;51786;-46
2023/03/28 04:54:46;;;;;;;;;8.00;5.00;;;;;6.85;50.40;102231.28;5058181;28;45513;-47
2023/03/28 04:57:11;;;;;;;;;4.75;4.75;;;;;6.87;49.95;102240.84;5058289;28;45348;-46
2023/03/28 04:59:37;;;;;;;;;5.50;5.50;;;;;6.88;50.09;102239.06;5058623;28;45443;-45
2023/03/28 05:02:02;;;;;;;;;9.25;5.25;;;;;6.93;50.18;102239.66;5058116;28;45779;-45
2023/03/28 05:04:27;;;;;;;;;11.75;7.75;;;;;6.94;49.94;102238.69;5058305;28;45347;-45
2023/03/28 05:06:53;;;;;;;;;5.00;4.75;;;;;6.94;50.59;102234.25;5058214;28;45585;-46
2023/03/28 05:09:18;;;;;;;;;7.50;7.50;;;;;6.78;50.01;102214.03;5058562;28;45334;-46
2023/03/28 05:11:44;;;;;;;;;11.00;7.50;;;;;6.82;50.17;102228.81;5058156;28;46119;-46
2023/03/28 05:14:09;;;;;;;;;9.50;4.50;;;;;6.92;50.42;102245.88;5056565;28;45492;-46
2023/03/28 05:16:35;;;;;;;;;9.50;7.75;;;;;6.95;49.72;102246.56;5058190;28;45257;-45
2023/03/28 05:19:00;;;;;;;;;7.50;5.00;;;;;6.83;50.64;102230.53;5058382;28;45238;-45
2023/03/28 05:21:26;;;;;;;;;9.50;5.50;;;;;6.92;51.11;102252.03;5058045;28;46049;-46
2023/03/28 05:23:51;;;;;;;;;7.25;4.00;;;;;6.88;51.26;102252.28;5057312;28;45337;-46
2023/03/28 05:26:16;;;;;;;;;5.25;4.00;;;;;6.84;50.80;102241.00;5057969;28;45258;-45
2023/03/28 05:28:42;;;;;;;;;8.50;5.75;;;;;6.84;50.87;102248.09;5058071;28;45331;-45
2023/03/28 05:31:08;;;;;;;;;4.25;4.25;;;;;6.91;51.26;102247.69;5058050;28;46193;-49
2023/03/28 05:33:34;;;;;;;;;3.50;3.50;;;;;6.89;50.58;102243.41;5057948;28;45285;-45
2023/03/28 05:36:00;;;;;;;;;4.00;4.00;;;;;6.88;50.47;102241.69;5058087;28;45339;-46
2023/03/28 05:38:26;;;;;;;;;8.25;5.25;;;;;6.85;51.43;102241.88;5057793;28;45445;-45
2023/03/28 05:40:52;;;;;;;;;4.00;4.00;;;;;6.80;51.16;102238.63;5057567;28;45962;-45
2023/03/28 05:43:18;;;;;;;;;7.50;5.00;;;;;6.66;51.28;102224.38;5057556;28;45407;-48
2023/03/28 05:45:45;;;;;;;;;7.50;4.00;;;;;6.69;51.28;102245.34;5057797;28;45355;-43
2023/03/28 05:48:10;;;;;;;;;2.25;1.75;;;;;6.63;52.32;102251.00;5057780;28;45215;-44
2023/03/28 05:50:35;;;;;;;;;8.00;7.25;;;;;6.65;51.61;102248.25;5057313;28;45442;-44
2023/03/28 05:53:01;;;;;;;;;5.00;5.00;;;;;6.64;51.77;102252.69;5057645;28;45258;-46
2023/03/28 05:55:26;;;;;;;;;7.50;3.50;;;;;6.63;51.60;102240.41;5057658;28;45439;-45
2023/03/28 05:57:51;;;;;;;;;12.50;7.75;;;;;6.59;52.49;102244.16;5057609;28;45359;-45
2023/03/28 06:00:18;;;;;;;;;8.25;6.00;;;;;6.53;52.42;102241.88;5057471;28;45451;-46
2023/03/28 06:02:44;;;;;;;;;8.25;5.75;;;;;6.61;51.97;102244.06;5057257;28;45356;-43
2023/03/28 06:05:11;;;;;;;;;8.75;6.00;;;;;6.58;52.41;102244.25;5056505;28;45387;-44
2023/03/28 06:07:37;;;;;;;;;9.25;8.00;;;;;6.63;52.44;102240.41;5057526;28;45488;-46
2023/03/28 06:10:05;;;;;;;;;8.00;4.75;;;;;6.59;52.33;102235.38;5056516;28;46543;-47
2023/03/28 06:12:30;;;;;;;;;9.25;5.50;;;;;6.61;52.80;102246.72;5056754;28;45550;-48
2023/03/28 06:14:56;;;;;;;;;11.75;8.00;;;;;6.60;53.34;102250.31;5057064;28;45391;-46
2023/03/28 06:17:22;;;;;;;;;6.25;5.75;;;;;6.55;52.68;102258.50;5057554;28;45380;-46
2023/03/28 06:19:47;;;;;;;;;6.25;5.25;;;;;6.58;53.71;102263.63;5057115;28;45415;-46
2023/03/28 06:22:13;;;;;;;;;10.50;7.00;;;;;6.55;53.49;102260.28;5056042;28;45314;-45
2023/03/28 06:24:38;;;;;;;;;9.50;6.00;;;;;6.52;53.17;102269.22;5056503;28;45462;-44
2023/03/28 06:27:04;;;;;;;;;13.25;6.50;;;;;6.58;52.74;102268.06;5056856;28;45396;-46
2023/03/28 06:29:30;;;;;;;;;10.00;8.75;;;;;6.62;52.25;102270.44;5056533;28;46397;-43
2023/03/28 06:31:56;;;;;;;;;11.75;6.00;;;;;6.67;52.91;102273.69;5056658;28;45343;-44
2023/03/28 06:34:21;;;;;;;;;10.25;8.00;;;;;6.73;52.91;102268.03;5055911;28;45475;-44
2023/03/28 06:36:46;;;;;;;;;7.75;5.00;;;;;6.74;53.25;102269.78;5059993;28;45150;-47
2023/03/28 06:39:12;;;;;;;;;7.00;5.00;;;;;6.73;53.24;102275.97;5060285;28;46080;-48
2023/03/28 06:41:37;;;;;;;;;8.50;7.00;;;;;6.77;53.65;102276.66;5060164;28;45358;-45
2023/03/28 06:44:03;;;;;;;;;12.00;8.00;;;;;6.82;52.93;102279.91;5060242;28;45429;-46
2023/03/28 06:46:28;;;;;;;;;11.50;6.50;;;;;6.88;53.20;102274.28;5060261;28;45220;-46
2023/03/28 06:48:54;;;;;;;;;6.25;5.00;;;;;6.92;52.33;102282.91;5060048;28;47193;-42
2023/03/28 06:51:19;;;;;;;;;9.25;7.00;;;;;6.89;53.74;102276.00;5059958;28;45407;-45
2023/03/28 06:53:45;;;;;;;;;14.00;9.75;;;;;6.91;53.27;102276.78;5060309;28;45272;-47
2023/03/28 06:56:11;;;;;;;;;11.50;11.00;;;;;6.92;53.23;102278.47;5060318;28;45611;-47
2023/03/28 06:58:37;;;;;;;;;7.50;7.50;;;;;6.86;53.47;102267.38;5059668;28;47173;-45
2023/03/28 07:01:03;;;;;;;;;12.50;8.75;;;;;6.86;53.01;102262.06;5060004;28;45340;-46
2023/03/28 07:03:29;;;;;;;;;9.75;8.50;;;;;6.85;54.34;102265.66;5060047;28;45323;-46
2023/03/28 07:05:55;;;;;;;;;16.25;11.50;;;;;6.84;53.58;102258.69;5060078;28;45519;-45
2023/03/28 07:08:20;;;;;;;;;14.00;11.00;;;;;6.84;53.72;102256.88;5059611;28;46453;-45
2023/03/28 07:10:46;;;;;;;;;12.00;9.50;;;;;6.80;53.91;102250.06;5059609;28;45427;-46
2023/03/28 07:13:12;;;;;;;;;19.00;11.25;;;;;6.81;54.07;102241.19;5059775;28;45293;-45
2023/03/28 07:15:37;;;;;;;;;13.50;11.00;;;;;6.83;53.55;102236.66;5059964;28;45267;-46
2023/03/28 07:18:04;;;;;;;;;14.75;8.00;;;;;6.78;54.30;102232.56;5059930;28;45957;-46
2023/03/28 07:20:29;;;;;;;;;4.25;1.00;;;;;6.76;53.87;102219.44;5059713;28;45411;-44
2023/03/28 07:22:55;;;;;;;;;14.25;10.25;;;;;6.71;54.30;102195.03;5059485;28;45450;-43
2023/03/28 07:25:20;;;;;;;;;10.50;9.00;;;;;6.94;53.69;102222.81;5060100;28;45893;-45
2023/03/28 07:27:46;;;;;;;;;12.50;7.50;;;;;6.93;53.54;102221.97;5059628;28;45365;-43
2023/03/28 07:30:12;;;;;;;;;14.75;11.25;;;;;6.97;52.82;102218.22;5059517;28;45489;-45
2023/03/28 07:32:37;;;;;;;;;12.25;11.75;;;;;6.97;53.36;102223.50;5059628;28;45378;-44
2023/03/28 07:35:05;;;;;;;;;12.75;9.00;;;;;6.96;53.46;102237.69;5060128;28;45345;-45
2023/03/28 07:37:31;;;;;;;;;16.00;8.50;;;;;6.96;52.72;102237.69;5059381;28;45984;-44
2023/03/28 07:39:57;;;;;;;;;13.50;10.50;;;;;7.00;53.07;102241.00;5058924;28;45380;-45
2023/03/28 07:42:22;;;;;;;;;5.25;5.00;;;;;7.09;53.40;102237.00;5058925;28;45220;-45
2023/03/28 07:44:48;;;;;;;;;14.50;12.25;;;;;7.33;52.88;102250.59;5059404;28;45573;-47
2023/03/28 07:47:13;;;;;;;;;12.00;10.50;;;;;7.40;52.37;102236.91;5058667;28;46094;-45
2023/03/28 07:49:39;;;;;;;;;13.75;12.25;;;;;7.42;52.39;102231.53;5059774;28;45300;-46
2023/03/28 07:52:05;;;;;;;;;13.25;10.00;;;;;7.61;52.01;102253.34;5059415;28;45398;-42
2023/03/28 07:54:32;;;;;;;;;9.00;8.75;;;;;7.64;52.11;102244.38;5058220;28;45179;-43
2023/03/28 07:56:58;;;;;;;;;12.00;9.50;;;;;7.78;51.88;102248.84;5058977;28;46122;-43
2023/03/28 07:59:25;;;;;;;;;11.50;10.00;;;;;7.87;51.34;102250.94;5058905;28;45508;-43
2023/03/28 08:01:50;;;;;;;;;13.25;8.00;;;;;8.06;51.92;102250.69;5059092;28;45414;-41
2023/03/28 08:04:16;;;;;;;;;12.75;8.00;;;;;8.12;51.16;102252.94;5059107;28;45510;-46
2023/03/28 08:06:41;;;;;;;;;13.50;9.75;;;;;7.98;51.02;102229.94;5058844;28;45260;-46
2023/03/28 08:09:09;;;;;;;;;10.25;10.25;;;;;8.36;50.78;102258.53;5058709;28;45333;-45
2023/03/28 08:11:36;;;;;;;;;11.75;10.75;;;;;8.69;50.54;102255.63;5058962;28;45275;-47
2023/03/28 08:14:03;;;;;;;;;12.25;10.50;;;;;8.99;49.52;102255.44;5059087;28;45707;-47
2023/03/28 08:16:28;;;;;;;;;9.75;9.00;;;;;9.16;49.45;102239.25;5058645;28;46106;-46
2023/03/28 08:18:54;;;;;;;;;6.00;6.00;;;;;9.24;48.45;102234.28;5058718;28;45269;-43
2023/03/28 08:21:19;;;;;;;;;17.50;12.25;;;;;9.33;48.91;102230.19;5059077;28;45396;-47
2023/03/28 08:23:45;;;;;;;;;7.75;6.00;;;;;9.61;47.90;102242.47;5059140;28;45300;-46
2023/03/28 08:26:11;;;;;;;;;18.00;12.50;;;;;9.93;47.76;102247.38;5058676;28;45984;-46
2023/03/28 08:28:37;;;;;;;;;10.00;8.50;;;;;10.21;46.69;102259.63;5058517;28;45363;-45
2023/03/28 08:31:13;;;;;;;;;9.50;9.00;;;;;10.19;46.70;102226.94;5058512;28;45477;-41
2023/03/28 08:33:39;;;;;;;;;7.00;7.00;;;;;10.14;46.34;102242.38;5058881;28;45458;-46
2023/03/28 08:36:05;;;;;;;;;6.00;6.00;;;;;10.05;46.18;102237.72;5058411;28;45384;-46
2023/03/28 08:38:31;;;;;;;;;13.67;8.67;;;;;10.12;46.76;102234.53;5058441;28;45301;-46
2023/03/28 08:41:13;;;;;;;;;11.00;10.00;;;;;10.16;46.70;102230.69;5058489;28;45414;-43
2023/03/28 08:43:49;;;;;;;;;14.67;7.00;;;;;10.11;46.57;102231.94;5058559;28;45537;-45
2023/03/28 08:46:17;;;;;;;;;9.00;6.33;;;;;10.03;45.61;102239.59;5057701;28;46970;-43
2023/03/28 08:48:45;;;;;;;;;11.00;7.67;;;;;9.88;46.06;102234.41;5058089;28;45454;-46
2023/03/28 08:51:34;;;;;;;;;6.00;6.00;;;;;9.71;46.15;102227.59;5058504;28;45383;-46
2023/03/28 08:54:02;;;;;;;;;8.33;6.67;;;;;9.68;45.41;102235.75;5058426;28;45467;-47
2023/03/28 08:56:31;;;;;;;;;6.33;4.33;;;;;9.63;45.54;102231.72;5057965;28;45373;-47
2023/03/28 08:59:20;;;;;;;;;14.00;5.00;;;;;9.58;45.99;102215.25;5057084;28;45365;-45
2023/03/28 09:01:46;;;;;;;;;5.67;5.67;;;;;9.63;45.77;102215.78;5058184;28;45329;-45
2023/03/28 09:04:33;;;;;;;;;5.67;5.33;;;;;9.64;45.60;102214.81;5057914;28;45210;-46
2023/03/28 09:07:15;;;;;;;;;5.33;5.33;;;;;9.69;45.15;102208.25;5057852;28;45467;-46
2023/03/28 09:10:08;;;;;;;;;8.00;5.00;;;;;9.85;44.98;102215.16;5057789;28;45183;-45
2023/03/28 09:12:47;;;;;;;;;5.00;2.67;;;;;9.89;44.98;102196.22;5058185;28;45274;-41
2023/03/28 09:15:37;;;;;;;;;5.00;2.67;;;;;9.87;44.79;102192.84;5057970;28;45518;-46
2023/03/28 09:18:41;;;;;;;;;7.00;5.33;;;;;9.92;43.96;102197.84;5057540;28;46362;-44
2023/03/28 09:21:17;;;;;;;;;8.67;4.00;;;;;9.99;44.19;102202.63;5057854;28;45302;-47
2023/03/28 09:24:14;;;;;;;;;6.00;6.00;;;;;10.30;44.15;102202.28;5057918;28;45515;-46
2023/03/28 09:26:55;;;;;;;;;4.33;2.33;;;;;10.73;43.03;102184.91;5058285;28;45356;-46
2023/03/28 09:29:24;;;;;;;;;5.67;4.33;;;;;11.02;42.26;102195.25;5057815;28;47091;-48
2023/03/28 09:32:04;;;;;;;;;7.67;3.00;;;;;10.96;41.90;102195.72;5039547;28;45285;-45
2023/03/28 09:34:43;;;;;;;;;5.67;5.00;;;;;10.87;42.57;102199.03;5057483;28;45284;-44
2023/03/28 09:37:28;;;;;;;;;6.00;6.00;;;;;10.84;42.26;102196.59;5057877;28;45306;-48
2023/03/28 09:40:16;;;;;;;;;2.00;2.00;;;;;10.86;42.03;102195.50;5056335;28;47188;-47
2023/03/28 09:42:55;;;;;;;;;5.00;2.00;;;;;10.90;42.30;102183.69;5057384;28;45483;-45
2023/03/28 09:45:36;;;;;;;;;6.00;2.33;;;;;10.95;41.15;102175.34;5057614;28;45396;-47
2023/03/28 09:48:05;;;;;;;;;2.00;2.00;;;;;10.83;41.78;102150.50;5057608;28;45590;-44
2023/03/28 09:50:30;;;;;;;;;1.00;1.00;;;;;10.87;42.10;102162.63;5057510;28;47199;-43
2023/03/28 09:52:57;;;;;;;;;3.00;3.00;;;;;10.99;41.81;102153.69;5057523;28;45479;-41
2023/03/28 09:55:25;;;;;;;;;3.00;3.00;;;;;11.23;41.30;102143.03;5057483;28;45243;-44
2023/03/28 09:58:20;;;;;;;;;4.00;2.00;;;;;11.57;40.21;102142.25;5057391;28;45305;-41
2023/03/28 10:00:49;;;;;;;;;7.33;3.00;;;;;11.85;40.68;102130.31;5014494;28;47161;-40
2023/03/28 10:03:31;;;;;;;;;2.00;2.00;;;;;12.47;39.02;102141.28;5015175;28;45371;-41
2023/03/28 10:05:59;;;;;;;;;2.33;2.00;;;;;12.47;39.50;102151.97;5015030;28;45355;-42
2023/03/28 10:08:33;;;;;;;;;2.67;2.00;;;;;12.19;38.06;102136.47;5015365;28;45398;-45
2023/03/28 10:11:01;;;;;;;;;5.00;3.00;;;;;12.24;37.96;102144.94;5014494;28;45505;-43
2023/03/28 10:13:35;;;;;;;;;3.00;3.00;;;;;12.47;37.72;102113.72;5014947;28;46092;-47
2023/03/28 10:16:03;;;;;;;;;5.67;5.67;;;;;12.97;37.74;102096.16;5014476;28;45296;-44
2023/03/28 10:18:30;;;;;;;;;4.33;3.67;;;;;13.51;36.83;102106.81;5015239;28;45425;-42
2023/03/28 10:20:55;;;;;;;;;4.33;3.67;;;;;13.46;36.74;102120.59;5014219;28;45459;-47
2023/03/28 10:23:23;;;;;;;;;1.00;1.00;;;;;13.42;36.11;102119.16;5014764;28;45430;-43
2023/03/28 10:25:53;;;;;;;;;2.00;2.00;;;;;13.25;36.15;102114.41;5015068;28;45395;-44
2023/03/28 10:28:35;;;;;;;;;2.00;2.00;;;;;13.03;37.71;102112.69;5015148;28;45393;-41
2023/03/28 10:31:02;;;;;;;;;2.00;2.00;;;;;12.77;37.08;102112.16;5014778;28;46994;-41
2023/03/28 10:33:39;;;;;;;;;2.00;1.00;;;;;12.39;37.65;102118.88;5014738;28;45530;-40
2023/03/28 10:36:11;;;;;;;;;4.00;4.00;;;;;12.12;37.63;102119.25;5016833;28;45229;-44
2023/03/28 10:38:45;;;;;;;;;3.00;3.00;;;;;12.04;38.48;102133.19;5057523;28;45749;-49
2023/03/28 10:41:20;;;;;;;;;7.00;3.00;;;;;11.96;38.10;102117.81;5056721;28;45398;-47
2023/03/28 10:43:46;;;;;;;;;3.00;3.00;;;;;11.82;38.13;102112.69;5056686;28;45280;-46
2023/03/28 10:46:29;;;;;;;;;3.67;2.33;;;;;11.70;38.69;102103.84;5057022;28;45325;-45
2023/03/28 10:49:01;;;;;;;;;3.00;3.00;;;;;11.62;38.44;102111.59;5057253;28;45382;-48
2023/03/28 10:51:30;;;;;;;;;2.00;2.00;;;;;11.62;39.64;102106.25;5056707;28;46173;-47
2023/03/28 10:53:58;;;;;;;;;1.67;1.67;;;;;11.57;39.27;102096.94;5054510;28;45478;-42
2023/03/28 10:56:37;;;;;;;;;7.00;3.00;;;;;11.52;39.33;102086.63;5052741;28;45462;-45
2023/03/28 10:59:40;;;;;;;;;8.67;5.67;;;;;11.44;39.05;102097.03;5053348;28;45354;-43
2023/03/28 11:02:05;;;;;;;;;3.00;3.00;;;;;11.30;39.16;102084.81;5053638;28;46407;-46
2023/03/28 11:04:31;;;;;;;;;11.33;6.33;;;;;11.28;39.56;102075.22;5053377;28;46570;-41
2023/03/28 11:06:59;;;;;;;;;3.33;3.33;;;;;11.23;39.59;102075.56;5054108;28;45401;-47
2023/03/28 11:09:37;;;;;;;;;5.00;2.00;;;;;11.20;40.12;102060.66;5055233;28;45542;-42
2023/03/28 11:12:05;;;;;;;;;3.00;3.00;;;;;11.23;40.25;102063.09;5054941;28;46182;-44
2023/03/28 11:14:56;;;;;;;;;5.00;5.00;;;;;11.29;40.51;102063.59;5054705;28;45517;-49
2023/03/28 11:17:51;;;;;;;;;3.00;3.00;;;;;11.47;40.18;102063.03;5054555;28;45337;-42
2023/03/28 11:20:25;;;;;;;;;2.33;2.33;;;;;11.63;39.50;102053.78;5051753;28;45562;-44
2023/03/28 11:23:15;;;;;;;;;6.00;5.00;;;;;11.68;39.62;102047.16;5057084;28;46350;-41
2023/03/28 11:26:08;;;;;;;;;3.00;2.67;;;;;11.83;39.42;102039.75;5057483;28;45470;-44
2023/03/28 11:29:01;;;;;;;;;2.67;2.33;;;;;11.95;39.45;102027.28;5035182;28;45471;-43
2023/03/28 11:31:40;;;;;;;;;3.00;3.00;;;;;12.14;39.81;102040.81;5035515;28;45391;-42
2023/03/28 11:34:29;;;;;;;;;2.00;0.67;;;;;12.22;39.01;102046.38;5034955;28;47422;-42
2023/03/28 11:37:02;;;;;;;;;6.67;6.00;;;;;12.51;38.54;102050.25;5035356;28;45863;-49
2023/03/28 11:39:50;;;;;;;;;4.33;4.33;;;;;12.81;38.09;102046.84;5035803;27;45637;-44
2023/03/28 11:42:31;;;;;;;;;3.00;3.00;;;;;12.96;38.23;102029.53;5035825;28;45455;-44
2023/03/28 11:45:11;;;;;;;;;3.00;3.00;;;;;12.94;38.29;102026.16;5035080;28;45386;-45